createdAt,value
2023-12-18T00:00:25.795Z,2.89
2023-12-18T00:00:55.586Z,2.89
2023-12-18T00:01:31.727Z,2.89
2023-12-18T00:01:59.134Z,2.57
2023-12-18T00:02:32.238Z,2.57
2023-12-18T00:03:03.336Z,2.57
2023-12-18T00:03:36.298Z,2.09
2023-12-18T00:04:07.237Z,2.09
2023-12-18T00:04:40.069Z,2.09
2023-12-18T00:05:11.627Z,2.09
2023-12-18T00:05:43.962Z,1.77
2023-12-18T00:06:15.202Z,1.12
2023-12-18T00:06:47.909Z,.64
2023-12-18T00:07:19.337Z,.32
2023-12-18T00:07:52.093Z,.32
2023-12-18T00:08:23.139Z,0
2023-12-18T00:08:55.914Z,0
2023-12-18T00:09:27.178Z,0
2023-12-18T00:10:00.108Z,0
2023-12-18T00:10:31.643Z,0
2023-12-18T00:11:03.977Z,0
2023-12-18T00:11:35.130Z,0
2023-12-18T00:12:08.206Z,0
2023-12-18T00:12:39.492Z,0
2023-12-18T00:13:11.860Z,0
2023-12-18T00:13:43.103Z,0
2023-12-18T00:14:16.047Z,0
2023-12-18T00:14:47.235Z,0
2023-12-18T00:15:21.379Z,0
2023-12-18T00:15:51.316Z,0
2023-12-18T00:16:24.099Z,0
2023-12-18T00:16:55.115Z,0
2023-12-18T00:17:28.013Z,0
2023-12-18T00:17:59.189Z,0
2023-12-18T00:18:32.198Z,0
2023-12-18T00:19:03.322Z,0
2023-12-18T00:19:19.489Z,0
2023-12-18T00:19:51.082Z,0
2023-12-18T00:20:23.558Z,0
2023-12-18T00:20:55.184Z,0
2023-12-18T00:21:27.121Z,0
2023-12-18T00:21:59.929Z,0
2023-12-18T00:22:31.230Z,0
2023-12-18T00:23:04.124Z,0
2023-12-18T00:23:35.077Z,0
2023-12-18T00:24:07.968Z,0
2023-12-18T00:24:39.379Z,0
2023-12-18T00:25:12.396Z,0
2023-12-18T00:25:43.128Z,0
2023-12-18T00:26:15.905Z,0
2023-12-18T00:26:47.292Z,0
2023-12-18T00:27:20.013Z,0
2023-12-18T00:27:51.577Z,0
2023-12-18T00:28:24.075Z,0
2023-12-18T00:28:55.118Z,0
2023-12-18T00:29:27.952Z,0
2023-12-18T00:29:59.084Z,0
2023-12-18T00:30:33.462Z,0
2023-12-18T00:31:03.251Z,0
2023-12-18T00:31:36.287Z,0
2023-12-18T00:32:07.266Z,0
2023-12-18T00:32:40.216Z,0
2023-12-18T00:33:11.376Z,0
2023-12-18T00:33:44.087Z,0
2023-12-18T00:34:15.247Z,0
2023-12-18T00:34:48.120Z,0
2023-12-18T00:35:19.633Z,0
2023-12-18T00:35:52.830Z,0
2023-12-18T00:36:23.402Z,0
2023-12-18T00:36:56.076Z,0
2023-12-18T00:37:27.286Z,0
2023-12-18T00:37:59.988Z,0
2023-12-18T00:38:31.268Z,0
2023-12-18T00:39:04.092Z,0
2023-12-18T00:39:35.103Z,0
2023-12-18T00:40:08.325Z,0
2023-12-18T00:40:39.207Z,0
2023-12-18T00:41:12.258Z,0
2023-12-18T00:41:43.096Z,0
2023-12-18T00:42:23.119Z,0
2023-12-18T00:42:47.151Z,0
2023-12-18T00:43:19.097Z,0
2023-12-18T00:43:52.201Z,0
2023-12-18T00:44:23.153Z,0
2023-12-18T00:44:56.221Z,0
2023-12-18T00:45:28.460Z,0
2023-12-18T00:46:00.279Z,0
2023-12-18T00:46:31.269Z,0
2023-12-18T00:47:04.144Z,0
2023-12-18T00:47:35.196Z,0
2023-12-18T00:48:08.082Z,0
2023-12-18T00:48:39.406Z,0
2023-12-18T00:49:12.074Z,0
2023-12-18T00:49:43.356Z,0
2023-12-18T00:50:16.585Z,0
2023-12-18T00:50:47.121Z,0
2023-12-18T00:51:20.086Z,0
2023-12-18T00:51:51.216Z,0
2023-12-18T00:52:23.895Z,0
2023-12-18T00:52:55.089Z,0
2023-12-18T00:53:28.024Z,0
2023-12-18T00:53:59.225Z,0
2023-12-18T00:54:31.877Z,0
2023-12-18T00:55:03.627Z,0
2023-12-18T00:55:36.133Z,0
2023-12-18T00:56:07.162Z,0
2023-12-18T00:56:39.804Z,0
2023-12-18T00:57:11.223Z,0
2023-12-18T00:57:44.599Z,0
2023-12-18T00:58:15.121Z,0
2023-12-18T00:58:47.990Z,0
2023-12-18T00:59:19.254Z,0
2023-12-18T00:59:52.140Z,0
2023-12-18T01:00:25.172Z,0
2023-12-18T01:00:56.291Z,0
2023-12-18T01:01:27.345Z,0
2023-12-18T01:02:01.682Z,0
2023-12-18T01:02:31.220Z,0
2023-12-18T01:03:04.202Z,0
2023-12-18T01:03:35.152Z,0
2023-12-18T01:04:10.033Z,0
2023-12-18T01:04:39.546Z,0
2023-12-18T01:05:12.345Z,0
2023-12-18T01:05:43.107Z,.32
2023-12-18T01:06:15.870Z,.32
2023-12-18T01:06:47.317Z,.64
2023-12-18T01:07:19.863Z,.64
2023-12-18T01:07:51.216Z,.64
2023-12-18T01:08:23.932Z,.64
2023-12-18T01:08:55.064Z,.64
2023-12-18T01:09:28.135Z,1.12
2023-12-18T01:09:59.323Z,1.12
2023-12-18T01:10:32.374Z,1.12
2023-12-18T01:11:03.206Z,1.12
2023-12-18T01:11:19.366Z,.64
2023-12-18T01:11:51.115Z,.64
2023-12-18T01:12:23.224Z,.64
2023-12-18T01:12:55.205Z,1.12
2023-12-18T01:13:27.155Z,.64
2023-12-18T01:14:00.187Z,.64
2023-12-18T01:14:31.293Z,.64
2023-12-18T01:15:06.346Z,.32
2023-12-18T01:15:35.366Z,.32
2023-12-18T01:16:08.045Z,0
2023-12-18T01:16:39.253Z,0
2023-12-18T01:17:12.065Z,0
2023-12-18T01:17:43.427Z,.32
2023-12-18T01:18:16.154Z,0
2023-12-18T01:18:47.592Z,.32
2023-12-18T01:19:20.047Z,.32
2023-12-18T01:19:51.277Z,0
2023-12-18T01:20:24.385Z,0
2023-12-18T01:20:55.075Z,.32
2023-12-18T01:21:27.959Z,.32
2023-12-18T01:21:59.299Z,.32
2023-12-18T01:22:32.478Z,.32
2023-12-18T01:23:04.959Z,.32
2023-12-18T01:23:35.916Z,.32
2023-12-18T01:24:07.478Z,.32
2023-12-18T01:24:40.187Z,.64
2023-12-18T01:25:11.646Z,1.12
2023-12-18T01:25:43.987Z,1.12
2023-12-18T01:26:15.285Z,1.12
2023-12-18T01:26:48.036Z,1.12
2023-12-18T01:27:19.926Z,1.12
2023-12-18T01:27:52.055Z,1.12
2023-12-18T01:28:23.129Z,1.12
2023-12-18T01:28:55.831Z,1.44
2023-12-18T01:29:27.291Z,1.44
2023-12-18T01:30:01.981Z,1.44
2023-12-18T01:30:31.322Z,1.44
2023-12-18T01:31:04.383Z,1.44
2023-12-18T01:31:35.270Z,1.44
2023-12-18T01:32:08.865Z,1.77
2023-12-18T01:32:39.249Z,1.77
2023-12-18T01:33:12.242Z,1.77
2023-12-18T01:33:43.399Z,1.77
2023-12-18T01:34:24.745Z,1.77
2023-12-18T01:34:47.193Z,1.77
2023-12-18T01:35:19.979Z,1.77
2023-12-18T01:35:51.141Z,1.77
2023-12-18T01:36:23.440Z,1.77
2023-12-18T01:36:55.188Z,1.44
2023-12-18T01:37:27.294Z,1.44
2023-12-18T01:37:59.185Z,1.44
2023-12-18T01:38:31.260Z,1.12
2023-12-18T01:39:03.355Z,1.12
2023-12-18T01:39:35.237Z,1.12
2023-12-18T01:40:14.039Z,1.12
2023-12-18T01:40:39.229Z,1.12
2023-12-18T01:41:11.136Z,.64
2023-12-18T01:41:44.076Z,.32
2023-12-18T01:42:15.281Z,.32
2023-12-18T01:42:48.023Z,.32
2023-12-18T01:43:19.231Z,.32
2023-12-18T01:43:52.024Z,.32
2023-12-18T01:44:23.235Z,0
2023-12-18T01:44:56.071Z,0
2023-12-18T01:45:29.181Z,0
2023-12-18T01:46:00.228Z,0
2023-12-18T01:46:31.180Z,0
2023-12-18T01:47:03.939Z,0
2023-12-18T01:47:35.194Z,0
2023-12-18T01:48:08.356Z,0
2023-12-18T01:48:39.299Z,0
2023-12-18T01:49:12.570Z,0
2023-12-18T01:49:43.294Z,0
2023-12-18T01:50:31.702Z,0
2023-12-18T01:51:03.552Z,0
2023-12-18T01:51:35.231Z,0
2023-12-18T01:52:09.839Z,0
2023-12-18T01:52:39.242Z,0
2023-12-18T01:53:13.137Z,0
2023-12-18T01:53:43.193Z,0
2023-12-18T01:54:16.092Z,0
2023-12-18T01:54:47.331Z,0
2023-12-18T01:55:21.094Z,0
2023-12-18T01:55:51.212Z,0
2023-12-18T01:56:24.043Z,0
2023-12-18T01:56:55.707Z,0
2023-12-18T01:57:28.231Z,0
2023-12-18T01:57:59.348Z,0
2023-12-18T01:58:35.007Z,0
2023-12-18T01:59:03.271Z,0
2023-12-18T01:59:35.929Z,0
2023-12-18T02:00:08.930Z,0
2023-12-18T02:00:40.122Z,0
2023-12-18T02:01:11.274Z,0
2023-12-18T02:01:44.213Z,.32
2023-12-18T02:02:15.141Z,.32
2023-12-18T02:02:48.041Z,.32
2023-12-18T02:03:19.298Z,.64
2023-12-18T02:03:52.116Z,.64
2023-12-18T02:04:23.312Z,.64
2023-12-18T02:04:56.128Z,1.12
2023-12-18T02:05:27.721Z,1.12
2023-12-18T02:06:01.115Z,1.12
2023-12-18T02:06:31.477Z,1.12
2023-12-18T02:07:04.258Z,1.44
2023-12-18T02:07:35.149Z,1.77
2023-12-18T02:07:51.365Z,1.77
2023-12-18T02:08:23.130Z,1.77
2023-12-18T02:08:55.135Z,2.09
2023-12-18T02:09:28.178Z,2.09
2023-12-18T02:09:59.335Z,2.09
2023-12-18T02:10:32.223Z,2.89
2023-12-18T02:11:03.208Z,2.89
2023-12-18T02:11:36.155Z,2.89
2023-12-18T02:12:07.250Z,2.89
2023-12-18T02:12:40.111Z,2.89
2023-12-18T02:13:11.277Z,2.89
2023-12-18T02:13:53.544Z,2.89
2023-12-18T02:14:15.125Z,2.89
2023-12-18T02:14:47.292Z,2.89
2023-12-18T02:15:20.664Z,2.89
2023-12-18T02:15:51.299Z,2.89
2023-12-18T02:16:24.069Z,2.89
2023-12-18T02:16:55.266Z,2.89
2023-12-18T02:17:28.178Z,2.89
2023-12-18T02:17:59.212Z,2.09
2023-12-18T02:18:32.249Z,2.09
2023-12-18T02:19:03.434Z,2.09
2023-12-18T02:19:35.826Z,2.09
2023-12-18T02:20:07.720Z,2.09
2023-12-18T02:20:40.075Z,2.09
2023-12-18T02:21:11.302Z,2.89
2023-12-18T02:21:43.959Z,2.89
2023-12-18T02:22:15.200Z,2.89
2023-12-18T02:22:48.195Z,2.89
2023-12-18T02:23:19.116Z,2.89
2023-12-18T02:23:52.100Z,2.89
2023-12-18T02:24:23.282Z,2.89
2023-12-18T02:24:57.114Z,2.89
2023-12-18T02:25:29.694Z,2.89
2023-12-18T02:25:59.958Z,2.89
2023-12-18T02:26:31.373Z,2.89
2023-12-18T02:27:04.047Z,2.89
2023-12-18T02:27:35.254Z,3.21
2023-12-18T02:28:09.986Z,3.21
2023-12-18T02:28:39.380Z,3.21
2023-12-18T02:29:12.070Z,3.21
2023-12-18T02:29:43.320Z,2.89
2023-12-18T02:30:17.431Z,2.89
2023-12-18T02:30:47.451Z,2.89
2023-12-18T02:31:20.172Z,2.89
2023-12-18T02:31:51.236Z,2.89
2023-12-18T02:32:24.150Z,2.89
2023-12-18T02:32:55.215Z,2.89
2023-12-18T02:33:28.385Z,2.57
2023-12-18T02:33:59.433Z,2.09
2023-12-18T02:34:34.800Z,2.09
2023-12-18T02:35:04.017Z,2.09
2023-12-18T02:35:36.301Z,2.09
2023-12-18T02:36:07.169Z,2.09
2023-12-18T02:36:40.092Z,2.09
2023-12-18T02:37:11.322Z,2.09
2023-12-18T02:37:44.249Z,2.09
2023-12-18T02:38:15.241Z,2.09
2023-12-18T02:38:48.245Z,2.09
2023-12-18T02:39:19.315Z,2.09
2023-12-18T02:39:51.966Z,2.09
2023-12-18T02:40:23.548Z,2.09
2023-12-18T02:40:56.060Z,2.09
2023-12-18T02:41:27.191Z,1.77
2023-12-18T02:41:59.917Z,1.77
2023-12-18T02:42:31.362Z,1.77
2023-12-18T02:43:04.449Z,1.77
2023-12-18T02:43:35.083Z,1.44
2023-12-18T02:44:08.055Z,1.44
2023-12-18T02:44:39.401Z,1.44
2023-12-18T02:45:13.444Z,1.12
2023-12-18T02:45:43.373Z,1.12
2023-12-18T02:46:16.004Z,1.12
2023-12-18T02:46:47.361Z,.64
2023-12-18T02:47:19.895Z,.64
2023-12-18T02:47:51.254Z,1.12
2023-12-18T02:48:24.232Z,.64
2023-12-18T02:48:55.379Z,.64
2023-12-18T02:49:35.901Z,.64
2023-12-18T02:49:59.218Z,.64
2023-12-18T02:50:31.760Z,.64
2023-12-18T02:51:04.969Z,.64
2023-12-18T02:51:35.323Z,.64
2023-12-18T02:52:08.237Z,.64
2023-12-18T02:52:39.412Z,.64
2023-12-18T02:53:12.147Z,.64
2023-12-18T02:53:43.271Z,.64
2023-12-18T02:54:16.072Z,.64
2023-12-18T02:54:47.144Z,.64
2023-12-18T02:55:35.696Z,.64
2023-12-18T02:56:07.228Z,.64
2023-12-18T02:56:39.342Z,.64
2023-12-18T02:57:11.442Z,.64
2023-12-18T02:57:43.597Z,.64
2023-12-18T02:58:16.080Z,.64
2023-12-18T02:58:47.310Z,.64
2023-12-18T02:59:19.796Z,.64
2023-12-18T02:59:51.197Z,.64
2023-12-18T03:00:26.466Z,.32
2023-12-18T03:00:55.556Z,.32
2023-12-18T03:01:28.061Z,.64
2023-12-18T03:01:59.280Z,.64
2023-12-18T03:02:32.387Z,.64
2023-12-18T03:03:03.258Z,.64
2023-12-18T03:03:19.437Z,.64
2023-12-18T03:03:51.456Z,.64
2023-12-18T03:04:23.222Z,.64
2023-12-18T03:04:56.097Z,.64
2023-12-18T03:05:27.835Z,.64
2023-12-18T03:06:01.112Z,.64
2023-12-18T03:06:31.299Z,.64
2023-12-18T03:07:04.102Z,.64
2023-12-18T03:07:35.197Z,.64
2023-12-18T03:07:51.398Z,.64
2023-12-18T03:08:23.149Z,1.12
2023-12-18T03:08:55.250Z,1.12
2023-12-18T03:09:28.020Z,1.12
2023-12-18T03:09:59.247Z,1.12
2023-12-18T03:10:32.543Z,1.44
2023-12-18T03:11:03.299Z,1.44
2023-12-18T03:11:36.199Z,1.44
2023-12-18T03:12:07.149Z,1.77
2023-12-18T03:12:40.274Z,1.77
2023-12-18T03:13:11.321Z,1.77
2023-12-18T03:13:44.136Z,2.09
2023-12-18T03:14:15.199Z,2.09
2023-12-18T03:14:48.168Z,2.09
2023-12-18T03:15:20.615Z,2.09
2023-12-18T03:15:52.426Z,2.09
2023-12-18T03:16:23.198Z,2.09
2023-12-18T03:16:58.032Z,2.09
2023-12-18T03:17:27.596Z,2.09
2023-12-18T03:18:00.165Z,2.57
2023-12-18T03:18:31.424Z,2.89
2023-12-18T03:19:04.122Z,2.89
2023-12-18T03:19:35.383Z,2.89
2023-12-18T03:20:08.446Z,2.89
2023-12-18T03:20:39.199Z,3.21
2023-12-18T03:21:12.302Z,3.21
2023-12-18T03:21:43.252Z,2.89
2023-12-18T03:22:16.127Z,2.89
2023-12-18T03:22:47.281Z,2.89
2023-12-18T03:23:20.140Z,2.89
2023-12-18T03:23:51.179Z,2.89
2023-12-18T03:24:24.351Z,2.89
2023-12-18T03:24:55.361Z,2.09
2023-12-18T03:25:28.324Z,2.09
2023-12-18T03:25:59.255Z,2.09
2023-12-18T03:26:32.370Z,2.09
2023-12-18T03:27:03.168Z,2.09
2023-12-18T03:27:36.235Z,2.57
2023-12-18T03:28:07.350Z,2.57
2023-12-18T03:28:40.100Z,2.57
2023-12-18T03:29:11.203Z,2.57
2023-12-18T03:29:44.122Z,2.89
2023-12-18T03:30:16.893Z,2.89
2023-12-18T03:30:48.275Z,2.89
2023-12-18T03:31:19.293Z,2.89
2023-12-18T03:31:52.159Z,2.89
2023-12-18T03:32:23.108Z,2.89
2023-12-18T03:32:56.378Z,2.89
2023-12-18T03:33:27.442Z,2.89
2023-12-18T03:34:02.286Z,3.21
2023-12-18T03:34:31.307Z,3.21
2023-12-18T03:35:04.925Z,3.21
2023-12-18T03:35:35.279Z,3.21
2023-12-18T03:36:08.181Z,3.21
2023-12-18T03:36:39.279Z,3.21
2023-12-18T03:37:12.081Z,3.21
2023-12-18T03:37:43.632Z,3.21
2023-12-18T03:38:16.070Z,3.21
2023-12-18T03:38:47.259Z,3.21
2023-12-18T03:39:25.043Z,3.21
2023-12-18T03:39:51.256Z,3.21
2023-12-18T03:40:23.638Z,3.21
2023-12-18T03:40:55.269Z,3.21
2023-12-18T03:41:27.159Z,3.54
2023-12-18T03:41:59.960Z,3.54
2023-12-18T03:42:31.332Z,3.54
2023-12-18T03:43:04.202Z,3.54
2023-12-18T03:43:35.180Z,3.54
2023-12-18T03:44:07.953Z,4.02
2023-12-18T03:44:39.349Z,4.02
2023-12-18T03:45:13.462Z,4.02
2023-12-18T03:45:43.487Z,4.02
2023-12-18T03:46:16.361Z,4.02
2023-12-18T03:46:47.404Z,4.02
2023-12-18T03:47:20.026Z,4.02
2023-12-18T03:47:51.204Z,4.02
2023-12-18T03:48:24.374Z,4.02
2023-12-18T03:48:55.445Z,4.02
2023-12-18T03:49:28.103Z,4.02
2023-12-18T03:49:59.274Z,4.02
2023-12-18T03:50:33.567Z,4.02
2023-12-18T03:51:03.213Z,3.54
2023-12-18T03:51:36.264Z,3.54
2023-12-18T03:52:07.296Z,3.54
2023-12-18T03:52:40.214Z,3.54
2023-12-18T03:53:11.214Z,2.89
2023-12-18T03:53:43.946Z,2.09
2023-12-18T03:54:15.281Z,2.09
2023-12-18T03:54:48.021Z,2.09
2023-12-18T03:55:19.557Z,2.09
2023-12-18T03:55:52.243Z,2.09
2023-12-18T03:56:23.090Z,2.09
2023-12-18T03:56:57.083Z,2.09
2023-12-18T03:57:27.333Z,1.77
2023-12-18T03:58:00.246Z,2.09
2023-12-18T03:58:31.211Z,1.77
2023-12-18T03:59:04.146Z,1.77
2023-12-18T03:59:35.295Z,1.77
2023-12-18T04:00:09.810Z,1.77
2023-12-18T04:00:39.328Z,2.09
2023-12-18T04:01:12.259Z,2.09
2023-12-18T04:01:43.394Z,2.57
2023-12-18T04:02:16.177Z,2.57
2023-12-18T04:02:47.337Z,2.57
2023-12-18T04:03:20.161Z,2.09
2023-12-18T04:03:51.424Z,2.09
2023-12-18T04:04:24.122Z,2.09
2023-12-18T04:04:55.426Z,2.09
2023-12-18T04:05:28.666Z,2.09
2023-12-18T04:05:59.315Z,2.09
2023-12-18T04:06:32.202Z,2.09
2023-12-18T04:07:03.282Z,2.09
2023-12-18T04:07:36.309Z,2.09
2023-12-18T04:08:07.247Z,2.09
2023-12-18T04:08:39.971Z,2.09
2023-12-18T04:09:11.389Z,2.57
2023-12-18T04:09:44.934Z,2.57
2023-12-18T04:10:15.610Z,2.57
2023-12-18T04:10:49.141Z,2.09
2023-12-18T04:11:19.315Z,2.09
2023-12-18T04:11:53.020Z,2.09
2023-12-18T04:12:23.337Z,2.09
2023-12-18T04:12:56.277Z,2.09
2023-12-18T04:13:27.227Z,2.09
2023-12-18T04:14:00.213Z,2.57
2023-12-18T04:14:31.359Z,2.57
2023-12-18T04:15:07.144Z,2.57
2023-12-18T04:15:35.375Z,2.57
2023-12-18T04:16:08.865Z,2.57
2023-12-18T04:16:39.340Z,2.57
2023-12-18T04:17:12.040Z,2.57
2023-12-18T04:17:43.581Z,2.57
2023-12-18T04:18:16.115Z,2.57
2023-12-18T04:18:47.432Z,2.09
2023-12-18T04:19:20.311Z,2.09
2023-12-18T04:19:51.335Z,2.09
2023-12-18T04:20:24.569Z,2.09
2023-12-18T04:20:55.148Z,2.09
2023-12-18T04:21:28.182Z,2.09
2023-12-18T04:21:59.261Z,2.09
2023-12-18T04:22:32.079Z,2.09
2023-12-18T04:23:03.243Z,2.09
2023-12-18T04:23:36.095Z,2.09
2023-12-18T04:24:07.574Z,2.09
2023-12-18T04:24:40.027Z,2.09
2023-12-18T04:25:11.731Z,2.09
2023-12-18T04:25:44.208Z,2.09
2023-12-18T04:26:15.194Z,2.89
2023-12-18T04:26:48.232Z,2.89
2023-12-18T04:27:19.362Z,2.89
2023-12-18T04:27:52.350Z,2.89
2023-12-18T04:28:23.230Z,2.89
2023-12-18T04:28:56.036Z,2.89
2023-12-18T04:29:27.368Z,2.89
2023-12-18T04:30:09.458Z,2.89
2023-12-18T04:30:31.456Z,2.89
2023-12-18T04:31:03.418Z,2.89
2023-12-18T04:31:35.491Z,3.21
2023-12-18T04:32:07.230Z,3.21
2023-12-18T04:32:40.201Z,3.54
2023-12-18T04:33:11.426Z,3.21
2023-12-18T04:33:44.093Z,3.21
2023-12-18T04:34:15.293Z,3.21
2023-12-18T04:34:48.191Z,3.21
2023-12-18T04:35:19.775Z,3.21
2023-12-18T04:35:51.996Z,3.21
2023-12-18T04:36:23.541Z,3.21
2023-12-18T04:37:11.520Z,2.57
2023-12-18T04:37:43.652Z,2.57
2023-12-18T04:38:15.339Z,2.57
2023-12-18T04:38:47.222Z,2.57
2023-12-18T04:39:19.416Z,2.57
2023-12-18T04:39:51.333Z,2.09
2023-12-18T04:40:23.690Z,2.09
2023-12-18T04:40:56.836Z,2.09
2023-12-18T04:41:27.366Z,2.09
2023-12-18T04:41:59.880Z,2.09
2023-12-18T04:42:31.284Z,2.09
2023-12-18T04:43:04.058Z,2.09
2023-12-18T04:43:35.331Z,2.09
2023-12-18T04:44:07.921Z,1.77
2023-12-18T04:44:39.349Z,1.77
2023-12-18T04:45:13.735Z,1.44
2023-12-18T04:45:43.377Z,1.44
2023-12-18T04:46:17.048Z,1.44
2023-12-18T04:46:47.283Z,1.44
2023-12-18T04:47:20.346Z,1.44
2023-12-18T04:47:51.257Z,1.44
2023-12-18T04:48:24.348Z,1.44
2023-12-18T04:48:55.605Z,1.44
2023-12-18T04:49:28.266Z,1.44
2023-12-18T04:49:59.301Z,1.44
2023-12-18T04:50:32.422Z,1.44
2023-12-18T04:51:03.358Z,1.44
2023-12-18T04:51:36.325Z,1.44
2023-12-18T04:52:07.320Z,1.44
2023-12-18T04:52:40.907Z,1.44
2023-12-18T04:53:11.233Z,1.44
2023-12-18T04:53:44.088Z,1.44
2023-12-18T04:54:15.297Z,1.44
2023-12-18T04:54:48.404Z,1.44
2023-12-18T04:55:20.244Z,1.44
2023-12-18T04:55:52.109Z,1.44
2023-12-18T04:56:23.404Z,1.44
2023-12-18T04:56:56.533Z,1.44
2023-12-18T04:57:27.281Z,1.44
2023-12-18T04:58:00.091Z,1.44
2023-12-18T04:58:31.446Z,1.44
2023-12-18T04:59:04.140Z,1.12
2023-12-18T04:59:35.267Z,1.12
2023-12-18T05:00:09.923Z,1.12
2023-12-18T05:00:39.406Z,.64
2023-12-18T05:01:12.255Z,.64
2023-12-18T05:01:43.391Z,.64
2023-12-18T05:02:18.964Z,.64
2023-12-18T05:02:47.134Z,.32
2023-12-18T05:03:20.145Z,.32
2023-12-18T05:03:51.367Z,.32
2023-12-18T05:04:24.125Z,.32
2023-12-18T05:04:55.202Z,.32
2023-12-18T05:05:28.755Z,.32
2023-12-18T05:05:59.180Z,.32
2023-12-18T05:06:32.142Z,.32
2023-12-18T05:07:03.313Z,.32
2023-12-18T05:07:36.190Z,.32
2023-12-18T05:08:07.218Z,.32
2023-12-18T05:08:39.993Z,.32
2023-12-18T05:09:11.361Z,.32
2023-12-18T05:09:45.347Z,.32
2023-12-18T05:10:16.147Z,.32
2023-12-18T05:10:48.138Z,.32
2023-12-18T05:11:19.229Z,.32
2023-12-18T05:11:52.044Z,.32
2023-12-18T05:12:23.306Z,.32
2023-12-18T05:12:56.476Z,.32
2023-12-18T05:13:27.315Z,.32
2023-12-18T05:14:00.040Z,.32
2023-12-18T05:14:31.336Z,.32
2023-12-18T05:15:07.420Z,.32
2023-12-18T05:15:35.436Z,.64
2023-12-18T05:16:08.136Z,.64
2023-12-18T05:16:39.331Z,.64
2023-12-18T05:17:12.360Z,1.12
2023-12-18T05:17:43.397Z,1.12
2023-12-18T05:18:17.137Z,1.12
2023-12-18T05:18:47.337Z,1.12
2023-12-18T05:19:20.307Z,1.44
2023-12-18T05:19:51.344Z,1.44
2023-12-18T05:20:24.426Z,1.44
2023-12-18T05:20:55.190Z,1.44
2023-12-18T05:21:28.288Z,1.44
2023-12-18T05:21:59.382Z,1.44
2023-12-18T05:22:47.297Z,1.44
2023-12-18T05:23:19.241Z,1.44
2023-12-18T05:23:51.307Z,1.44
2023-12-18T05:24:23.306Z,1.77
2023-12-18T05:24:55.327Z,1.77
2023-12-18T05:25:27.779Z,1.77
2023-12-18T05:25:59.204Z,1.77
2023-12-18T05:26:31.345Z,1.77
2023-12-18T05:27:03.183Z,1.77
2023-12-18T05:27:20.313Z,1.77
2023-12-18T05:27:51.221Z,1.77
2023-12-18T05:28:24.026Z,1.77
2023-12-18T05:28:55.248Z,1.77
2023-12-18T05:29:28.205Z,1.77
2023-12-18T05:29:59.243Z,1.77
2023-12-18T05:30:34.590Z,2.09
2023-12-18T05:31:03.496Z,2.09
2023-12-18T05:31:36.345Z,2.09
2023-12-18T05:32:07.296Z,2.09
2023-12-18T05:32:40.418Z,2.09
2023-12-18T05:33:11.327Z,2.09
2023-12-18T05:33:44.887Z,2.09
2023-12-18T05:34:15.414Z,2.09
2023-12-18T05:34:48.116Z,2.09
2023-12-18T05:35:19.561Z,2.09
2023-12-18T05:35:52.109Z,1.77
2023-12-18T05:36:23.393Z,2.09
2023-12-18T05:36:55.990Z,1.77
2023-12-18T05:37:27.417Z,1.77
2023-12-18T05:38:00.354Z,1.77
2023-12-18T05:38:31.510Z,1.44
2023-12-18T05:39:04.068Z,1.44
2023-12-18T05:39:35.324Z,1.12
2023-12-18T05:40:09.426Z,1.12
2023-12-18T05:40:39.164Z,1.12
2023-12-18T05:41:12.187Z,1.12
2023-12-18T05:41:43.334Z,1.12
2023-12-18T05:42:16.150Z,1.12
2023-12-18T05:42:47.247Z,1.12
2023-12-18T05:43:20.300Z,1.12
2023-12-18T05:43:51.341Z,.64
2023-12-18T05:44:23.920Z,.32
2023-12-18T05:44:55.274Z,.32
2023-12-18T05:45:31.077Z,.64
2023-12-18T05:45:59.321Z,.64
2023-12-18T05:46:32.077Z,.32
2023-12-18T05:47:03.276Z,.32
2023-12-18T05:47:36.418Z,.32
2023-12-18T05:48:07.265Z,0
2023-12-18T05:48:41.184Z,0
2023-12-18T05:49:11.501Z,0
2023-12-18T05:49:44.195Z,0
2023-12-18T05:50:15.594Z,0
2023-12-18T05:50:48.101Z,0
2023-12-18T05:51:19.499Z,0
2023-12-18T05:51:52.052Z,0
2023-12-18T05:52:23.284Z,0
2023-12-18T05:52:56.139Z,0
2023-12-18T05:53:27.345Z,0
2023-12-18T05:54:00.034Z,0
2023-12-18T05:54:31.455Z,0
2023-12-18T05:55:05.686Z,0
2023-12-18T05:55:35.146Z,0
2023-12-18T05:56:08.122Z,0
2023-12-18T05:56:39.318Z,.32
2023-12-18T05:57:16.159Z,.32
2023-12-18T05:57:43.442Z,.32
2023-12-18T05:58:15.329Z,.32
2023-12-18T05:58:47.364Z,.32
2023-12-18T05:59:19.197Z,.32
2023-12-18T05:59:52.152Z,.32
2023-12-18T06:00:25.541Z,.32
2023-12-18T06:00:57.603Z,.32
2023-12-18T06:01:27.252Z,0
2023-12-18T06:02:00.771Z,0
2023-12-18T06:02:31.482Z,0
2023-12-18T06:03:04.275Z,0
2023-12-18T06:03:35.251Z,0
2023-12-18T06:04:08.169Z,0
2023-12-18T06:04:39.646Z,0
2023-12-18T06:05:12.486Z,0
2023-12-18T06:05:43.459Z,0
2023-12-18T06:06:24.248Z,0
2023-12-18T06:06:47.335Z,0
2023-12-18T06:07:19.381Z,0
2023-12-18T06:07:51.313Z,0
2023-12-18T06:08:23.179Z,0
2023-12-18T06:08:56.025Z,.32
2023-12-18T06:09:27.375Z,.32
2023-12-18T06:10:00.130Z,1.12
2023-12-18T06:10:31.799Z,1.12
2023-12-18T06:11:04.195Z,1.12
2023-12-18T06:11:35.367Z,1.12
2023-12-18T06:12:08.134Z,1.12
2023-12-18T06:12:39.330Z,1.12
2023-12-18T06:13:12.224Z,1.12
2023-12-18T06:13:43.239Z,1.12
2023-12-18T06:14:15.985Z,1.12
2023-12-18T06:14:47.275Z,.32
2023-12-18T06:15:21.538Z,.32
2023-12-18T06:15:51.506Z,.32
2023-12-18T06:16:24.018Z,1.12
2023-12-18T06:16:55.341Z,1.12
2023-12-18T06:17:28.151Z,1.12
2023-12-18T06:17:59.404Z,1.12
2023-12-18T06:18:32.465Z,1.12
2023-12-18T06:19:03.540Z,1.12
2023-12-18T06:19:37.437Z,1.12
2023-12-18T06:20:07.606Z,1.12
2023-12-18T06:20:42.037Z,1.12
2023-12-18T06:21:11.234Z,.32
2023-12-18T06:21:44.038Z,.32
2023-12-18T06:22:15.327Z,1.12
2023-12-18T06:22:48.431Z,1.12
2023-12-18T06:23:19.258Z,1.12
2023-12-18T06:23:52.096Z,1.12
2023-12-18T06:24:23.275Z,1.12
2023-12-18T06:24:56.291Z,1.12
2023-12-18T06:25:27.633Z,1.12
2023-12-18T06:26:03.244Z,1.12
2023-12-18T06:26:31.509Z,1.44
2023-12-18T06:27:03.952Z,1.44
2023-12-18T06:27:35.383Z,1.44
2023-12-18T06:28:08.325Z,1.44
2023-12-18T06:28:39.240Z,1.44
2023-12-18T06:29:12.058Z,1.44
2023-12-18T06:29:43.306Z,1.12
2023-12-18T06:30:17.569Z,1.12
2023-12-18T06:30:47.494Z,1.12
2023-12-18T06:31:20.417Z,1.12
2023-12-18T06:31:51.500Z,1.12
2023-12-18T06:32:32.061Z,1.12
2023-12-18T06:32:55.457Z,1.12
2023-12-18T06:33:27.626Z,1.12
2023-12-18T06:33:59.585Z,1.12
2023-12-18T06:34:31.485Z,1.12
2023-12-18T06:35:03.854Z,1.44
2023-12-18T06:35:35.493Z,1.44
2023-12-18T06:36:07.261Z,1.77
2023-12-18T06:36:40.163Z,1.77
2023-12-18T06:37:11.377Z,1.77
2023-12-18T06:37:44.220Z,1.77
2023-12-18T06:38:15.221Z,1.77
2023-12-18T06:38:48.328Z,1.77
2023-12-18T06:39:19.419Z,1.77
2023-12-18T06:39:52.144Z,2.09
2023-12-18T06:40:23.635Z,2.09
2023-12-18T06:40:56.067Z,2.09
2023-12-18T06:41:27.251Z,2.09
2023-12-18T06:42:00.043Z,2.09
2023-12-18T06:42:31.366Z,2.09
2023-12-18T06:43:04.323Z,2.09
2023-12-18T06:43:35.394Z,2.09
2023-12-18T06:44:08.084Z,2.09
2023-12-18T06:44:39.504Z,2.09
2023-12-18T06:45:14.417Z,1.77
2023-12-18T06:45:43.511Z,1.77
2023-12-18T06:46:16.299Z,1.77
2023-12-18T06:46:47.523Z,1.77
2023-12-18T06:47:20.128Z,2.09
2023-12-18T06:47:51.365Z,2.09
2023-12-18T06:48:24.335Z,2.09
2023-12-18T06:48:55.406Z,2.09
2023-12-18T06:49:29.187Z,2.09
2023-12-18T06:49:59.370Z,1.44
2023-12-18T06:50:32.384Z,1.44
2023-12-18T06:51:03.202Z,1.44
2023-12-18T06:51:36.364Z,1.44
2023-12-18T06:52:07.413Z,1.44
2023-12-18T06:52:40.468Z,1.44
2023-12-18T06:53:11.334Z,1.44
2023-12-18T06:53:44.959Z,1.44
2023-12-18T06:54:15.425Z,1.44
2023-12-18T06:54:48.161Z,1.44
2023-12-18T06:55:19.682Z,1.44
2023-12-18T06:55:52.219Z,1.44
2023-12-18T06:56:23.260Z,1.44
2023-12-18T06:56:56.560Z,1.44
2023-12-18T06:57:27.358Z,1.44
2023-12-18T06:58:00.353Z,1.44
2023-12-18T06:58:31.315Z,1.77
2023-12-18T06:59:04.232Z,1.77
2023-12-18T06:59:35.315Z,1.77
2023-12-18T07:00:13.491Z,2.09
2023-12-18T07:00:41.458Z,2.09
2023-12-18T07:01:11.414Z,2.09
2023-12-18T07:01:43.325Z,2.09
2023-12-18T07:02:15.259Z,2.09
2023-12-18T07:02:48.448Z,2.09
2023-12-18T07:03:19.417Z,2.09
2023-12-18T07:03:52.099Z,2.09
2023-12-18T07:04:23.466Z,2.09
2023-12-18T07:04:56.274Z,2.09
2023-12-18T07:05:28.030Z,2.09
2023-12-18T07:06:15.147Z,2.09
2023-12-18T07:06:32.736Z,2.09
2023-12-18T07:07:03.425Z,2.09
2023-12-18T07:07:36.249Z,2.09
2023-12-18T07:08:07.299Z,2.09
2023-12-18T07:08:41.911Z,2.09
2023-12-18T07:09:11.342Z,2.09
2023-12-18T07:09:45.059Z,2.09
2023-12-18T07:10:15.754Z,2.09
2023-12-18T07:10:47.996Z,2.09
2023-12-18T07:11:19.205Z,2.09
2023-12-18T07:11:52.100Z,2.09
2023-12-18T07:12:23.385Z,2.09
2023-12-18T07:12:57.110Z,1.77
2023-12-18T07:13:27.347Z,1.77
2023-12-18T07:14:00.121Z,1.77
2023-12-18T07:14:31.439Z,1.77
2023-12-18T07:15:05.680Z,1.77
2023-12-18T07:15:35.619Z,1.44
2023-12-18T07:16:08.412Z,1.44
2023-12-18T07:16:39.357Z,1.44
2023-12-18T07:17:13.870Z,1.44